Sea Cloud II — 9HUE6 — position and weather

sailwx.info

Track history (hours):
 
Tides and Currents Weather Stations Pressure Air Temp Water Temp Dewpoint Dewpoint Depression Visibility Wind Speed Wind Dir Waves Ship Positions

Sea Cloud II

Ship's website: http://www.seacloud.com/en/the-ships/sea-cloud-ii.html

Last reported at 2016-Sep-29 21:33 UTC. Time now 2016-Sep-30 11:51 UTC.
Position N 37°44' E 015°29'.

Length 117 m; draft 6 m.

Type: Passenger vessel. MMSI: 248953000.

Date/timePositionNaut miles runAvg speedWind from/ knotsBaromVisibWave heightAir tempDewpointWater temp
2016-Sep-29 21:33N 37°44' E 015°29'7 7.0
2016-Sep-29 20:31N 37°51' E 015°30'6 6.8
2016-Sep-29 19:33N 37°58' E 015°32'14 4.6
2016-Sep-29 16:30N 38°12' E 015°33'0 0.0
2016-Sep-29 15:30N 38°12' E 015°33'0 0.0
2016-Sep-29 14:24N 38°12' E 015°33'0 0.0
2016-Sep-29 13:30N 38°12' E 015°33'0 0.0
2016-Sep-29 08:30N 38°12' E 015°33'0 0.0
2016-Sep-29 07:30N 38°12' E 015°33'19 2.7
2016-Sep-29 00:33N 38°30' E 015°29'19 6.2
2016-Sep-28 21:33N 38°47' E 015°18'9 4.6
2016-Sep-28 19:32N 38°50' E 015°07'  
2016-Sep-23 19:23N 43°38' E 009°46'2212.2
2016-Sep-23 17:33N 44°00' E 009°52'6 6.2
2016-Sep-23 16:32N 44°06' E 009°50'0 0.0
2016-Sep-23 15:32N 44°06' E 009°50'0 0.0
2016-Sep-23 13:32N 44°06' E 009°50'0 0.0
2016-Sep-23 09:32N 44°06' E 009°50'0 0.0
2016-Sep-23 06:32N 44°06' E 009°50'6 2.8
2016-Sep-23 04:33N 44°01' E 009°54'8 8.2
2016-Sep-23 03:33N 43°56' E 009°46'1212.2
2016-Sep-23 02:33N 43°49' E 009°32'1211.9
2016-Sep-23 01:33N 43°45' E 009°16'1212.2
2016-Sep-23 00:33N 43°42' E 008°60'1212.1
2016-Sep-22 23:33N 43°40' E 008°43'  
2016-Sep-20 17:33N 43°38' E 007°15'4 1.2
2016-Sep-20 14:33N 43°42' E 007°17'0 0.0
2016-Sep-20 13:21N 43°42' E 007°17'0 0.0
2016-Sep-20 10:15N 43°42' E 007°17'0 0.0
2016-Sep-20 08:21N 43°42' E 007°17'0 0.0
2016-Sep-20 07:33N 43°42' E 007°17'0 0.0
2016-Sep-20 06:33N 43°42' E 007°17'67 9.1
2016-Sep-19 23:16N 42°40' E 007°53'  
Track history (hours):
 
Tides and Currents Weather Stations Pressure Air Temp Water Temp Dewpoint Dewpoint Depression Visibility Wind Speed Wind Dir Waves Ship Positions

Sea Cloud II

Ship's website: http://www.seacloud.com/en/the-ships/sea-cloud-ii.html

Last reported at 2016-Sep-29 21:33 UTC. Time now 2016-Sep-30 11:51 UTC.
Position N 37°44' E 015°29'.

Length 117 m; draft 6 m.

Type: Passenger vessel. MMSI: 248953000.

Date/timePositionNaut miles runAvg speedWind from/ knotsBaromVisibWave heightAir tempDewpointWater temp
2016-Sep-29 21:33N 37°44' E 015°29'7 7.0
2016-Sep-29 20:31N 37°51' E 015°30'6 6.8
2016-Sep-29 19:33N 37°58' E 015°32'14 4.6
2016-Sep-29 16:30N 38°12' E 015°33'0 0.0
2016-Sep-29 15:30N 38°12' E 015°33'0 0.0
2016-Sep-29 14:24N 38°12' E 015°33'0 0.0
2016-Sep-29 13:30N 38°12' E 015°33'0 0.0
2016-Sep-29 08:30N 38°12' E 015°33'0 0.0
2016-Sep-29 07:30N 38°12' E 015°33'19 2.7
2016-Sep-29 00:33N 38°30' E 015°29'19 6.2
2016-Sep-28 21:33N 38°47' E 015°18'9 4.6
2016-Sep-28 19:32N 38°50' E 015°07'  
2016-Sep-23 19:23N 43°38' E 009°46'2212.2
2016-Sep-23 17:33N 44°00' E 009°52'6 6.2
2016-Sep-23 16:32N 44°06' E 009°50'0 0.0
2016-Sep-23 15:32N 44°06' E 009°50'0 0.0
2016-Sep-23 13:32N 44°06' E 009°50'0 0.0
2016-Sep-23 09:32N 44°06' E 009°50'0 0.0
2016-Sep-23 06:32N 44°06' E 009°50'6 2.8
2016-Sep-23 04:33N 44°01' E 009°54'8 8.2
2016-Sep-23 03:33N 43°56' E 009°46'1212.2
2016-Sep-23 02:33N 43°49' E 009°32'1211.9
2016-Sep-23 01:33N 43°45' E 009°16'1212.2
2016-Sep-23 00:33N 43°42' E 008°60'1212.1
2016-Sep-22 23:33N 43°40' E 008°43'  
2016-Sep-20 17:33N 43°38' E 007°15'4 1.2
2016-Sep-20 14:33N 43°42' E 007°17'0 0.0
2016-Sep-20 13:21N 43°42' E 007°17'0 0.0
2016-Sep-20 10:15N 43°42' E 007°17'0 0.0
2016-Sep-20 08:21N 43°42' E 007°17'0 0.0
2016-Sep-20 07:33N 43°42' E 007°17'0 0.0
2016-Sep-20 06:33N 43°42' E 007°17'67 9.1
2016-Sep-19 23:16N 42°40' E 007°53'  

Dump ship's entire track history